Terminal Aerodrome Forecast
Issued by NWS

Home | Current Version | Previous Version | Text Only | Print | Product List | Glossary Off
Versions: 1 2 3 4 5 6 7 8 9 10 11 12 13 14 15

000
FTUS43 KMPX 201129
TAFRWF
TAF
KRWF 201129Z 2012/2112 08009KT P6SM BKN080
     FM210300 11004KT P6SM BKN060
     FM210900 13004KT P6SM VCSH SCT025 OVC035=

USA.gov is the U.S. government's official web portal to all federal, state and local government web resources and services.